KSLO/SLO METAR and TAF weather

Enter ICAO airport designator
Station Type Date Time Source
KSLO METAR 2022/06/28 15:55 UTC NOAA

KSLO 281555Z AUTO 00000KT 10SM CLR 25/12 A3029 RMK AO2 T02500118


Station Type Date Time Source
KSLO Decoded METAR 2022/06/28 15:55 UTC NOAA

Salem, Salem-Leckrone Airport, IL, United States (KSLO) 38-38-34N 088-57-51W 174M
Jun 28, 2022 - 11:55 AM EDT / 2022.06.28 1555 UTC
Wind: Calm:0
Visibility: 10 mile(s):0
Sky conditions: clear
Temperature: 77.0 F (25.0 C)
Dew Point: 53.2 F (11.8 C)
Relative Humidity: 43%
Pressure (altimeter): 30.29 in. Hg (1025 hPa)
ob: KSLO 281555Z AUTO 00000KT 10SM CLR 25/12 A3029 RMK AO2 T02500118
cycle: 16

Station Type Date Time Source
KSLO TAF UTC NOAA

Error!

Example: see airport list